sensor_id;sensor_type;location;lat;lon;timestamp;P1;durP1;ratioP1;P2;durP2;ratioP2
22476;SDS011;65006;51.698;-0.292;2023-08-30T00:01:36;5.28;;;1.85;;
22476;SDS011;65006;51.698;-0.292;2023-08-30T00:04:02;3.15;;;1.73;;
22476;SDS011;65006;51.698;-0.292;2023-08-30T00:06:28;3.67;;;1.92;;
22476;SDS011;65006;51.698;-0.292;2023-08-30T00:08:54;4.60;;;2.08;;
22476;SDS011;65006;51.698;-0.292;2023-08-30T00:11:21;7.97;;;2.10;;
22476;SDS011;65006;51.698;-0.292;2023-08-30T00:13:47;3.40;;;1.77;;
22476;SDS011;65006;51.698;-0.292;2023-08-30T00:16:13;5.75;;;2.05;;
22476;SDS011;65006;51.698;-0.292;2023-08-30T00:18:41;5.35;;;2.35;;
22476;SDS011;65006;51.698;-0.292;2023-08-30T00:21:07;6.28;;;2.53;;
22476;SDS011;65006;51.698;-0.292;2023-08-30T00:23:33;8.55;;;3.25;;
22476;SDS011;65006;51.698;-0.292;2023-08-30T00:25:59;2.92;;;1.80;;
22476;SDS011;65006;51.698;-0.292;2023-08-30T00:28:25;3.88;;;2.33;;
22476;SDS011;65006;51.698;-0.292;2023-08-30T00:30:54;5.07;;;2.42;;
22476;SDS011;65006;51.698;-0.292;2023-08-30T00:33:21;4.70;;;2.00;;
22476;SDS011;65006;51.698;-0.292;2023-08-30T00:35:54;3.03;;;2.13;;
22476;SDS011;65006;51.698;-0.292;2023-08-30T00:38:20;3.30;;;2.10;;
22476;SDS011;65006;51.698;-0.292;2023-08-30T00:40:46;3.22;;;2.10;;
22476;SDS011;65006;51.698;-0.292;2023-08-30T00:43:12;5.60;;;2.20;;
22476;SDS011;65006;51.698;-0.292;2023-08-30T00:45:38;7.95;;;2.53;;
22476;SDS011;65006;51.698;-0.292;2023-08-30T00:48:05;6.85;;;2.78;;
22476;SDS011;65006;51.698;-0.292;2023-08-30T00:50:32;3.42;;;2.45;;
22476;SDS011;65006;51.698;-0.292;2023-08-30T00:52:58;9.18;;;2.50;;
22476;SDS011;65006;51.698;-0.292;2023-08-30T00:55:24;4.85;;;2.60;;
22476;SDS011;65006;51.698;-0.292;2023-08-30T00:57:50;4.07;;;2.28;;
22476;SDS011;65006;51.698;-0.292;2023-08-30T01:00:16;10.98;;;2.58;;
22476;SDS011;65006;51.698;-0.292;2023-08-30T01:02:42;8.75;;;2.70;;
22476;SDS011;65006;51.698;-0.292;2023-08-30T01:05:08;6.00;;;3.15;;
22476;SDS011;65006;51.698;-0.292;2023-08-30T01:07:35;8.95;;;3.20;;
22476;SDS011;65006;51.698;-0.292;2023-08-30T01:10:01;7.25;;;2.75;;
22476;SDS011;65006;51.698;-0.292;2023-08-30T01:12:29;5.25;;;2.67;;
22476;SDS011;65006;51.698;-0.292;2023-08-30T01:15:07;8.23;;;3.22;;
22476;SDS011;65006;51.698;-0.292;2023-08-30T01:17:35;5.80;;;3.08;;
22476;SDS011;65006;51.698;-0.292;2023-08-30T01:27:56;5.03;;;2.97;;
22476;SDS011;65006;51.698;-0.292;2023-08-30T01:30:22;8.23;;;3.08;;
22476;SDS011;65006;51.698;-0.292;2023-08-30T01:32:51;7.38;;;2.88;;
22476;SDS011;65006;51.698;-0.292;2023-08-30T01:35:17;5.95;;;3.42;;
22476;SDS011;65006;51.698;-0.292;2023-08-30T01:37:45;8.68;;;2.90;;
22476;SDS011;65006;51.698;-0.292;2023-08-30T01:40:11;7.13;;;3.65;;
22476;SDS011;65006;51.698;-0.292;2023-08-30T01:42:39;5.82;;;2.72;;
22476;SDS011;65006;51.698;-0.292;2023-08-30T01:45:06;9.05;;;3.20;;
22476;SDS011;65006;51.698;-0.292;2023-08-30T01:47:36;3.33;;;2.30;;
22476;SDS011;65006;51.698;-0.292;2023-08-30T01:50:02;10.95;;;2.78;;
22476;SDS011;65006;51.698;-0.292;2023-08-30T01:52:29;5.50;;;3.13;;
22476;SDS011;65006;51.698;-0.292;2023-08-30T01:54:56;3.90;;;2.40;;
22476;SDS011;65006;51.698;-0.292;2023-08-30T01:57:23;6.00;;;2.85;;
22476;SDS011;65006;51.698;-0.292;2023-08-30T01:59:49;9.27;;;2.90;;
22476;SDS011;65006;51.698;-0.292;2023-08-30T02:02:15;7.35;;;2.58;;
22476;SDS011;65006;51.698;-0.292;2023-08-30T02:04:41;8.20;;;2.65;;
22476;SDS011;65006;51.698;-0.292;2023-08-30T02:07:08;4.00;;;2.45;;
22476;SDS011;65006;51.698;-0.292;2023-08-30T02:09:40;5.13;;;2.33;;
22476;SDS011;65006;51.698;-0.292;2023-08-30T02:12:07;5.22;;;2.70;;
22476;SDS011;65006;51.698;-0.292;2023-08-30T02:14:36;9.82;;;2.20;;
22476;SDS011;65006;51.698;-0.292;2023-08-30T02:17:02;7.72;;;2.95;;
22476;SDS011;65006;51.698;-0.292;2023-08-30T02:19:28;4.75;;;2.47;;
22476;SDS011;65006;51.698;-0.292;2023-08-30T02:21:54;5.88;;;2.42;;
22476;SDS011;65006;51.698;-0.292;2023-08-30T02:24:20;7.47;;;2.70;;
22476;SDS011;65006;51.698;-0.292;2023-08-30T02:26:46;8.75;;;2.53;;
22476;SDS011;65006;51.698;-0.292;2023-08-30T02:29:12;5.60;;;2.17;;
22476;SDS011;65006;51.698;-0.292;2023-08-30T02:31:38;8.48;;;2.22;;
22476;SDS011;65006;51.698;-0.292;2023-08-30T02:34:05;7.28;;;2.60;;
22476;SDS011;65006;51.698;-0.292;2023-08-30T02:36:31;4.22;;;2.00;;
22476;SDS011;65006;51.698;-0.292;2023-08-30T02:38:57;7.57;;;2.10;;
22476;SDS011;65006;51.698;-0.292;2023-08-30T02:41:23;5.97;;;1.80;;
22476;SDS011;65006;51.698;-0.292;2023-08-30T02:43:49;5.45;;;2.10;;
22476;SDS011;65006;51.698;-0.292;2023-08-30T02:46:15;7.25;;;2.05;;
22476;SDS011;65006;51.698;-0.292;2023-08-30T02:48:41;5.95;;;1.75;;
22476;SDS011;65006;51.698;-0.292;2023-08-30T02:51:07;14.07;;;2.17;;
22476;SDS011;65006;51.698;-0.292;2023-08-30T02:53:33;7.72;;;2.08;;
22476;SDS011;65006;51.698;-0.292;2023-08-30T02:55:59;5.20;;;1.80;;
22476;SDS011;65006;51.698;-0.292;2023-08-30T02:58:25;10.60;;;1.75;;
22476;SDS011;65006;51.698;-0.292;2023-08-30T03:00:51;11.48;;;1.92;;
22476;SDS011;65006;51.698;-0.292;2023-08-30T03:03:17;8.77;;;2.13;;
22476;SDS011;65006;51.698;-0.292;2023-08-30T03:05:43;8.23;;;1.75;;
22476;SDS011;65006;51.698;-0.292;2023-08-30T03:08:09;5.22;;;1.60;;
22476;SDS011;65006;51.698;-0.292;2023-08-30T03:10:35;4.90;;;1.85;;
22476;SDS011;65006;51.698;-0.292;2023-08-30T03:13:00;7.72;;;1.73;;
22476;SDS011;65006;51.698;-0.292;2023-08-30T03:15:26;4.60;;;1.63;;
22476;SDS011;65006;51.698;-0.292;2023-08-30T03:17:52;6.35;;;2.08;;
22476;SDS011;65006;51.698;-0.292;2023-08-30T03:20:18;8.32;;;1.60;;
22476;SDS011;65006;51.698;-0.292;2023-08-30T03:22:44;3.25;;;1.90;;
22476;SDS011;65006;51.698;-0.292;2023-08-30T03:25:10;9.57;;;2.58;;
22476;SDS011;65006;51.698;-0.292;2023-08-30T03:27:36;5.70;;;1.60;;
22476;SDS011;65006;51.698;-0.292;2023-08-30T03:30:03;8.30;;;2.05;;
22476;SDS011;65006;51.698;-0.292;2023-08-30T03:32:29;5.03;;;2.00;;
22476;SDS011;65006;51.698;-0.292;2023-08-30T03:34:57;8.65;;;2.08;;
22476;SDS011;65006;51.698;-0.292;2023-08-30T03:37:23;6.55;;;1.50;;
22476;SDS011;65006;51.698;-0.292;2023-08-30T03:39:49;12.68;;;2.45;;
22476;SDS011;65006;51.698;-0.292;2023-08-30T03:42:15;6.38;;;1.85;;
22476;SDS011;65006;51.698;-0.292;2023-08-30T03:44:41;5.78;;;2.22;;
22476;SDS011;65006;51.698;-0.292;2023-08-30T03:47:07;8.15;;;1.67;;
22476;SDS011;65006;51.698;-0.292;2023-08-30T03:49:33;4.38;;;2.00;;
22476;SDS011;65006;51.698;-0.292;2023-08-30T03:51:59;6.57;;;1.58;;
22476;SDS011;65006;51.698;-0.292;2023-08-30T03:54:25;12.05;;;2.50;;
22476;SDS011;65006;51.698;-0.292;2023-08-30T03:56:51;8.07;;;2.05;;
22476;SDS011;65006;51.698;-0.292;2023-08-30T03:59:17;4.43;;;1.73;;
22476;SDS011;65006;51.698;-0.292;2023-08-30T04:01:43;9.10;;;2.08;;
22476;SDS011;65006;51.698;-0.292;2023-08-30T04:04:10;3.55;;;1.77;;
22476;SDS011;65006;51.698;-0.292;2023-08-30T04:06:36;10.05;;;1.92;;
22476;SDS011;65006;51.698;-0.292;2023-08-30T04:09:02;4.55;;;1.90;;
22476;SDS011;65006;51.698;-0.292;2023-08-30T04:11:28;6.63;;;2.33;;
22476;SDS011;65006;51.698;-0.292;2023-08-30T04:13:54;3.67;;;2.03;;
22476;SDS011;65006;51.698;-0.292;2023-08-30T04:16:20;8.18;;;2.35;;
22476;SDS011;65006;51.698;-0.292;2023-08-30T04:18:46;3.15;;;1.52;;
22476;SDS011;65006;51.698;-0.292;2023-08-30T04:21:12;5.40;;;1.83;;
22476;SDS011;65006;51.698;-0.292;2023-08-30T04:23:38;6.78;;;1.80;;
22476;SDS011;65006;51.698;-0.292;2023-08-30T04:26:04;5.10;;;2.35;;
22476;SDS011;65006;51.698;-0.292;2023-08-30T04:28:30;6.65;;;2.25;;
22476;SDS011;65006;51.698;-0.292;2023-08-30T04:30:56;8.73;;;3.05;;
22476;SDS011;65006;51.698;-0.292;2023-08-30T04:33:22;9.20;;;1.80;;
22476;SDS011;65006;51.698;-0.292;2023-08-30T04:35:52;7.88;;;2.20;;
22476;SDS011;65006;51.698;-0.292;2023-08-30T04:38:18;6.85;;;1.85;;
22476;SDS011;65006;51.698;-0.292;2023-08-30T04:40:45;9.43;;;2.33;;
22476;SDS011;65006;51.698;-0.292;2023-08-30T04:43:11;9.68;;;1.92;;
22476;SDS011;65006;51.698;-0.292;2023-08-30T04:45:37;4.85;;;1.80;;
22476;SDS011;65006;51.698;-0.292;2023-08-30T04:48:03;4.22;;;1.80;;
22476;SDS011;65006;51.698;-0.292;2023-08-30T04:50:29;4.03;;;1.83;;
22476;SDS011;65006;51.698;-0.292;2023-08-30T04:52:56;4.35;;;1.92;;
22476;SDS011;65006;51.698;-0.292;2023-08-30T04:55:25;5.60;;;1.65;;
22476;SDS011;65006;51.698;-0.292;2023-08-30T04:57:51;4.43;;;1.98;;
22476;SDS011;65006;51.698;-0.292;2023-08-30T05:00:17;6.75;;;1.75;;
22476;SDS011;65006;51.698;-0.292;2023-08-30T05:02:44;3.80;;;1.80;;
22476;SDS011;65006;51.698;-0.292;2023-08-30T05:05:11;4.68;;;1.70;;
22476;SDS011;65006;51.698;-0.292;2023-08-30T05:07:37;3.45;;;1.83;;
22476;SDS011;65006;51.698;-0.292;2023-08-30T05:10:03;4.35;;;2.05;;
22476;SDS011;65006;51.698;-0.292;2023-08-30T05:12:30;4.65;;;1.25;;
22476;SDS011;65006;51.698;-0.292;2023-08-30T05:14:56;5.30;;;1.33;;
22476;SDS011;65006;51.698;-0.292;2023-08-30T05:17:22;6.13;;;1.40;;
22476;SDS011;65006;51.698;-0.292;2023-08-30T05:19:47;6.18;;;1.50;;
22476;SDS011;65006;51.698;-0.292;2023-08-30T05:22:13;7.80;;;1.83;;
22476;SDS011;65006;51.698;-0.292;2023-08-30T05:24:39;4.22;;;1.30;;
22476;SDS011;65006;51.698;-0.292;2023-08-30T05:27:05;4.43;;;1.52;;
22476;SDS011;65006;51.698;-0.292;2023-08-30T05:29:32;5.70;;;2.10;;
22476;SDS011;65006;51.698;-0.292;2023-08-30T05:31:58;5.68;;;1.60;;
22476;SDS011;65006;51.698;-0.292;2023-08-30T05:34:24;7.40;;;1.65;;
22476;SDS011;65006;51.698;-0.292;2023-08-30T05:36:51;3.67;;;1.25;;
22476;SDS011;65006;51.698;-0.292;2023-08-30T05:39:18;7.35;;;1.55;;
22476;SDS011;65006;51.698;-0.292;2023-08-30T05:41:44;4.10;;;2.05;;
22476;SDS011;65006;51.698;-0.292;2023-08-30T05:44:10;5.68;;;1.42;;
22476;SDS011;65006;51.698;-0.292;2023-08-30T05:46:36;5.93;;;1.30;;
22476;SDS011;65006;51.698;-0.292;2023-08-30T05:49:02;5.07;;;1.50;;
22476;SDS011;65006;51.698;-0.292;2023-08-30T05:51:28;5.00;;;1.63;;
22476;SDS011;65006;51.698;-0.292;2023-08-30T05:53:54;7.68;;;1.27;;
22476;SDS011;65006;51.698;-0.292;2023-08-30T05:56:20;5.40;;;1.42;;
22476;SDS011;65006;51.698;-0.292;2023-08-30T05:58:46;9.52;;;1.58;;
22476;SDS011;65006;51.698;-0.292;2023-08-30T06:01:13;5.65;;;1.42;;
22476;SDS011;65006;51.698;-0.292;2023-08-30T06:03:39;6.10;;;1.50;;
22476;SDS011;65006;51.698;-0.292;2023-08-30T06:06:05;4.90;;;1.35;;
22476;SDS011;65006;51.698;-0.292;2023-08-30T06:08:32;7.20;;;1.42;;
22476;SDS011;65006;51.698;-0.292;2023-08-30T06:10:58;11.02;;;2.13;;
22476;SDS011;65006;51.698;-0.292;2023-08-30T06:13:24;6.22;;;1.52;;
22476;SDS011;65006;51.698;-0.292;2023-08-30T06:15:50;4.95;;;1.70;;
22476;SDS011;65006;51.698;-0.292;2023-08-30T06:18:16;7.28;;;1.52;;
22476;SDS011;65006;51.698;-0.292;2023-08-30T06:20:42;4.18;;;1.30;;
22476;SDS011;65006;51.698;-0.292;2023-08-30T06:23:08;9.48;;;1.80;;
22476;SDS011;65006;51.698;-0.292;2023-08-30T06:28:01;7.47;;;1.77;;
22476;SDS011;65006;51.698;-0.292;2023-08-30T06:30:28;7.25;;;1.38;;
22476;SDS011;65006;51.698;-0.292;2023-08-30T06:32:55;7.47;;;1.25;;
22476;SDS011;65006;51.698;-0.292;2023-08-30T06:35:21;9.35;;;1.30;;
22476;SDS011;65006;51.698;-0.292;2023-08-30T06:37:47;12.75;;;1.63;;
22476;SDS011;65006;51.698;-0.292;2023-08-30T06:40:13;5.72;;;1.58;;
22476;SDS011;65006;51.698;-0.292;2023-08-30T06:42:39;5.25;;;1.50;;
22476;SDS011;65006;51.698;-0.292;2023-08-30T06:45:05;7.40;;;1.80;;
22476;SDS011;65006;51.698;-0.292;2023-08-30T06:47:31;9.43;;;1.30;;
22476;SDS011;65006;51.698;-0.292;2023-08-30T06:49:57;4.88;;;1.48;;
22476;SDS011;65006;51.698;-0.292;2023-08-30T06:52:24;4.43;;;1.25;;
22476;SDS011;65006;51.698;-0.292;2023-08-30T06:54:49;9.13;;;1.42;;
22476;SDS011;65006;51.698;-0.292;2023-08-30T06:57:16;4.22;;;1.55;;
22476;SDS011;65006;51.698;-0.292;2023-08-30T06:59:42;6.85;;;1.23;;
22476;SDS011;65006;51.698;-0.292;2023-08-30T07:02:08;5.45;;;1.35;;
22476;SDS011;65006;51.698;-0.292;2023-08-30T07:04:34;6.65;;;1.65;;
22476;SDS011;65006;51.698;-0.292;2023-08-30T07:07:00;4.45;;;2.40;;
22476;SDS011;65006;51.698;-0.292;2023-08-30T07:09:26;5.85;;;1.48;;
22476;SDS011;65006;51.698;-0.292;2023-08-30T07:11:57;6.22;;;1.42;;
22476;SDS011;65006;51.698;-0.292;2023-08-30T07:14:23;8.93;;;1.40;;
22476;SDS011;65006;51.698;-0.292;2023-08-30T07:16:49;6.15;;;1.92;;
22476;SDS011;65006;51.698;-0.292;2023-08-30T07:19:15;5.55;;;2.13;;
22476;SDS011;65006;51.698;-0.292;2023-08-30T07:21:42;8.80;;;1.38;;
22476;SDS011;65006;51.698;-0.292;2023-08-30T07:24:08;3.50;;;1.23;;
22476;SDS011;65006;51.698;-0.292;2023-08-30T07:26:34;6.07;;;1.27;;
22476;SDS011;65006;51.698;-0.292;2023-08-30T07:29:02;4.65;;;1.23;;
22476;SDS011;65006;51.698;-0.292;2023-08-30T07:31:33;3.00;;;1.30;;
22476;SDS011;65006;51.698;-0.292;2023-08-30T07:33:59;7.95;;;1.30;;
22476;SDS011;65006;51.698;-0.292;2023-08-30T07:36:26;4.97;;;1.42;;
22476;SDS011;65006;51.698;-0.292;2023-08-30T07:38:53;7.38;;;1.75;;
22476;SDS011;65006;51.698;-0.292;2023-08-30T07:41:19;6.65;;;1.27;;
22476;SDS011;65006;51.698;-0.292;2023-08-30T07:43:45;3.00;;;1.20;;
22476;SDS011;65006;51.698;-0.292;2023-08-30T07:46:11;6.53;;;1.17;;
22476;SDS011;65006;51.698;-0.292;2023-08-30T07:48:37;5.47;;;1.30;;
22476;SDS011;65006;51.698;-0.292;2023-08-30T07:51:03;4.07;;;1.48;;
22476;SDS011;65006;51.698;-0.292;2023-08-30T07:53:30;7.22;;;1.30;;
22476;SDS011;65006;51.698;-0.292;2023-08-30T07:55:55;7.28;;;1.60;;
22476;SDS011;65006;51.698;-0.292;2023-08-30T07:58:22;5.30;;;1.20;;
22476;SDS011;65006;51.698;-0.292;2023-08-30T08:00:54;7.57;;;1.42;;
22476;SDS011;65006;51.698;-0.292;2023-08-30T08:03:20;3.65;;;1.00;;
22476;SDS011;65006;51.698;-0.292;2023-08-30T08:05:47;11.18;;;1.38;;
22476;SDS011;65006;51.698;-0.292;2023-08-30T08:08:13;4.25;;;1.13;;
22476;SDS011;65006;51.698;-0.292;2023-08-30T08:10:39;6.05;;;0.75;;
22476;SDS011;65006;51.698;-0.292;2023-08-30T08:13:05;1.95;;;0.90;;
22476;SDS011;65006;51.698;-0.292;2023-08-30T08:15:31;5.00;;;1.10;;
22476;SDS011;65006;51.698;-0.292;2023-08-30T08:17:58;6.53;;;0.88;;
22476;SDS011;65006;51.698;-0.292;2023-08-30T08:20:24;7.38;;;0.85;;
22476;SDS011;65006;51.698;-0.292;2023-08-30T08:22:51;3.30;;;0.85;;
22476;SDS011;65006;51.698;-0.292;2023-08-30T08:25:17;7.78;;;0.70;;
22476;SDS011;65006;51.698;-0.292;2023-08-30T08:27:43;5.15;;;1.23;;
22476;SDS011;65006;51.698;-0.292;2023-08-30T08:30:09;6.80;;;0.90;;
22476;SDS011;65006;51.698;-0.292;2023-08-30T08:32:36;6.80;;;0.60;;
22476;SDS011;65006;51.698;-0.292;2023-08-30T08:35:02;3.78;;;1.10;;
22476;SDS011;65006;51.698;-0.292;2023-08-30T08:37:29;2.50;;;0.82;;
22476;SDS011;65006;51.698;-0.292;2023-08-30T08:39:54;4.45;;;0.70;;
22476;SDS011;65006;51.698;-0.292;2023-08-30T08:42:20;7.55;;;0.80;;
22476;SDS011;65006;51.698;-0.292;2023-08-30T08:44:47;7.05;;;0.75;;
22476;SDS011;65006;51.698;-0.292;2023-08-30T08:47:16;4.30;;;0.95;;
22476;SDS011;65006;51.698;-0.292;2023-08-30T08:49:43;4.82;;;1.23;;
22476;SDS011;65006;51.698;-0.292;2023-08-30T08:52:09;4.07;;;1.08;;
22476;SDS011;65006;51.698;-0.292;2023-08-30T08:54:36;2.88;;;0.70;;
22476;SDS011;65006;51.698;-0.292;2023-08-30T08:57:02;3.55;;;0.98;;
22476;SDS011;65006;51.698;-0.292;2023-08-30T08:59:28;5.07;;;0.90;;
22476;SDS011;65006;51.698;-0.292;2023-08-30T09:01:54;2.50;;;0.65;;
22476;SDS011;65006;51.698;-0.292;2023-08-30T09:04:21;2.45;;;0.80;;
22476;SDS011;65006;51.698;-0.292;2023-08-30T09:06:47;3.70;;;1.10;;
22476;SDS011;65006;51.698;-0.292;2023-08-30T09:11:40;6.93;;;0.80;;
22476;SDS011;65006;51.698;-0.292;2023-08-30T09:14:06;5.88;;;1.02;;
22476;SDS011;65006;51.698;-0.292;2023-08-30T09:19:01;2.38;;;0.73;;
22476;SDS011;65006;51.698;-0.292;2023-08-30T09:21:28;3.95;;;0.75;;
22476;SDS011;65006;51.698;-0.292;2023-08-30T09:24:01;5.45;;;1.00;;
22476;SDS011;65006;51.698;-0.292;2023-08-30T09:26:28;3.00;;;0.60;;
22476;SDS011;65006;51.698;-0.292;2023-08-30T09:28:56;6.03;;;1.52;;
22476;SDS011;65006;51.698;-0.292;2023-08-30T09:31:32;3.97;;;0.70;;
22476;SDS011;65006;51.698;-0.292;2023-08-30T09:33:58;4.30;;;0.98;;
22476;SDS011;65006;51.698;-0.292;2023-08-30T09:36:25;2.25;;;0.60;;
22476;SDS011;65006;51.698;-0.292;2023-08-30T09:38:51;3.30;;;0.60;;
22476;SDS011;65006;51.698;-0.292;2023-08-30T09:43:44;1.55;;;1.00;;
22476;SDS011;65006;51.698;-0.292;2023-08-30T09:46:11;5.13;;;0.90;;
22476;SDS011;65006;51.698;-0.292;2023-08-30T09:48:37;1.98;;;0.75;;
22476;SDS011;65006;51.698;-0.292;2023-08-30T09:51:05;4.53;;;1.08;;
22476;SDS011;65006;51.698;-0.292;2023-08-30T09:53:33;4.57;;;1.27;;
22476;SDS011;65006;51.698;-0.292;2023-08-30T09:56:03;3.33;;;0.90;;
22476;SDS011;65006;51.698;-0.292;2023-08-30T09:58:29;0.98;;;0.43;;
22476;SDS011;65006;51.698;-0.292;2023-08-30T10:00:56;3.35;;;0.65;;
22476;SDS011;65006;51.698;-0.292;2023-08-30T10:03:22;4.75;;;0.80;;
22476;SDS011;65006;51.698;-0.292;2023-08-30T10:05:48;4.82;;;0.80;;
22476;SDS011;65006;51.698;-0.292;2023-08-30T10:08:14;2.85;;;0.70;;
22476;SDS011;65006;51.698;-0.292;2023-08-30T10:10:41;3.25;;;0.90;;
22476;SDS011;65006;51.698;-0.292;2023-08-30T10:13:07;4.75;;;0.80;;
22476;SDS011;65006;51.698;-0.292;2023-08-30T10:15:33;2.28;;;1.05;;
22476;SDS011;65006;51.698;-0.292;2023-08-30T10:18:00;8.25;;;0.80;;
22476;SDS011;65006;51.698;-0.292;2023-08-30T10:20:28;2.83;;;0.50;;
22476;SDS011;65006;51.698;-0.292;2023-08-30T10:22:54;1.95;;;0.60;;
22476;SDS011;65006;51.698;-0.292;2023-08-30T10:25:21;2.72;;;0.82;;
22476;SDS011;65006;51.698;-0.292;2023-08-30T10:27:48;0.82;;;0.40;;
22476;SDS011;65006;51.698;-0.292;2023-08-30T10:30:15;1.80;;;0.75;;
22476;SDS011;65006;51.698;-0.292;2023-08-30T10:32:42;3.05;;;0.50;;
22476;SDS011;65006;51.698;-0.292;2023-08-30T10:35:15;1.67;;;0.57;;
22476;SDS011;65006;51.698;-0.292;2023-08-30T10:37:41;1.35;;;0.35;;
22476;SDS011;65006;51.698;-0.292;2023-08-30T10:40:08;4.70;;;0.80;;
22476;SDS011;65006;51.698;-0.292;2023-08-30T10:42:35;5.07;;;1.20;;
22476;SDS011;65006;51.698;-0.292;2023-08-30T10:45:02;2.17;;;0.50;;
22476;SDS011;65006;51.698;-0.292;2023-08-30T10:47:38;2.42;;;0.40;;
22476;SDS011;65006;51.698;-0.292;2023-08-30T10:50:05;5.65;;;0.50;;
22476;SDS011;65006;51.698;-0.292;2023-08-30T10:52:32;2.22;;;0.35;;
22476;SDS011;65006;51.698;-0.292;2023-08-30T10:55:05;2.35;;;0.55;;
22476;SDS011;65006;51.698;-0.292;2023-08-30T10:57:32;1.42;;;0.38;;
22476;SDS011;65006;51.698;-0.292;2023-08-30T11:02:32;1.38;;;0.43;;
22476;SDS011;65006;51.698;-0.292;2023-08-30T11:04:59;0.90;;;0.32;;
22476;SDS011;65006;51.698;-0.292;2023-08-30T11:07:25;7.05;;;0.68;;
22476;SDS011;65006;51.698;-0.292;2023-08-30T11:09:51;1.70;;;0.50;;
22476;SDS011;65006;51.698;-0.292;2023-08-30T11:12:18;4.28;;;0.40;;
22476;SDS011;65006;51.698;-0.292;2023-08-30T11:14:47;2.20;;;0.50;;
22476;SDS011;65006;51.698;-0.292;2023-08-30T11:17:13;4.03;;;0.77;;
22476;SDS011;65006;51.698;-0.292;2023-08-30T11:19:42;4.68;;;0.40;;
22476;SDS011;65006;51.698;-0.292;2023-08-30T11:22:08;2.53;;;0.50;;
22476;SDS011;65006;51.698;-0.292;2023-08-30T11:24:34;2.03;;;0.30;;
22476;SDS011;65006;51.698;-0.292;2023-08-30T11:27:00;1.27;;;0.40;;
22476;SDS011;65006;51.698;-0.292;2023-08-30T11:29:26;5.07;;;1.00;;
22476;SDS011;65006;51.698;-0.292;2023-08-30T11:31:52;1.23;;;0.45;;
22476;SDS011;65006;51.698;-0.292;2023-08-30T11:34:21;4.53;;;0.45;;
22476;SDS011;65006;51.698;-0.292;2023-08-30T11:36:49;2.50;;;0.60;;
22476;SDS011;65006;51.698;-0.292;2023-08-30T11:39:16;3.72;;;1.13;;
22476;SDS011;65006;51.698;-0.292;2023-08-30T11:41:42;2.38;;;0.50;;
22476;SDS011;65006;51.698;-0.292;2023-08-30T11:44:08;2.42;;;0.47;;
22476;SDS011;65006;51.698;-0.292;2023-08-30T11:46:34;3.10;;;0.55;;
22476;SDS011;65006;51.698;-0.292;2023-08-30T11:49:00;4.18;;;0.45;;
22476;SDS011;65006;51.698;-0.292;2023-08-30T11:51:28;0.52;;;0.30;;
22476;SDS011;65006;51.698;-0.292;2023-08-30T11:53:54;1.05;;;0.30;;
22476;SDS011;65006;51.698;-0.292;2023-08-30T11:56:22;1.55;;;0.50;;
22476;SDS011;65006;51.698;-0.292;2023-08-30T11:58:48;0.77;;;0.35;;
22476;SDS011;65006;51.698;-0.292;2023-08-30T12:01:14;8.00;;;0.55;;
22476;SDS011;65006;51.698;-0.292;2023-08-30T12:03:40;2.80;;;0.47;;
22476;SDS011;65006;51.698;-0.292;2023-08-30T12:06:10;1.48;;;0.40;;
22476;SDS011;65006;51.698;-0.292;2023-08-30T12:08:37;1.73;;;0.65;;
22476;SDS011;65006;51.698;-0.292;2023-08-30T12:11:03;2.22;;;0.70;;
22476;SDS011;65006;51.698;-0.292;2023-08-30T12:13:29;0.65;;;0.50;;
22476;SDS011;65006;51.698;-0.292;2023-08-30T12:18:28;1.23;;;0.40;;
22476;SDS011;65006;51.698;-0.292;2023-08-30T12:20:55;2.83;;;0.40;;
22476;SDS011;65006;51.698;-0.292;2023-08-30T12:23:23;2.40;;;0.60;;
22476;SDS011;65006;51.698;-0.292;2023-08-30T12:26:02;1.52;;;0.40;;
22476;SDS011;65006;51.698;-0.292;2023-08-30T12:28:29;3.55;;;0.35;;
22476;SDS011;65006;51.698;-0.292;2023-08-30T12:30:55;3.25;;;0.70;;
22476;SDS011;65006;51.698;-0.292;2023-08-30T12:33:21;1.70;;;0.60;;
22476;SDS011;65006;51.698;-0.292;2023-08-30T12:35:47;1.48;;;0.30;;
22476;SDS011;65006;51.698;-0.292;2023-08-30T12:38:13;2.70;;;0.60;;
22476;SDS011;65006;51.698;-0.292;2023-08-30T12:40:45;2.28;;;0.60;;
22476;SDS011;65006;51.698;-0.292;2023-08-30T12:43:12;4.18;;;0.60;;
22476;SDS011;65006;51.698;-0.292;2023-08-30T12:45:39;2.08;;;0.50;;
22476;SDS011;65006;51.698;-0.292;2023-08-30T12:48:05;4.22;;;0.52;;
22476;SDS011;65006;51.698;-0.292;2023-08-30T12:50:32;2.20;;;0.45;;
22476;SDS011;65006;51.698;-0.292;2023-08-30T12:52:58;2.47;;;0.32;;
22476;SDS011;65006;51.698;-0.292;2023-08-30T12:55:24;4.97;;;0.45;;
22476;SDS011;65006;51.698;-0.292;2023-08-30T12:57:50;6.53;;;0.50;;
22476;SDS011;65006;51.698;-0.292;2023-08-30T13:00:16;0.88;;;0.40;;
22476;SDS011;65006;51.698;-0.292;2023-08-30T13:02:42;4.03;;;0.47;;
22476;SDS011;65006;51.698;-0.292;2023-08-30T13:05:08;2.60;;;0.63;;
22476;SDS011;65006;51.698;-0.292;2023-08-30T13:07:34;3.75;;;0.52;;
22476;SDS011;65006;51.698;-0.292;2023-08-30T13:10:00;2.13;;;0.60;;
22476;SDS011;65006;51.698;-0.292;2023-08-30T13:12:26;2.00;;;0.52;;
22476;SDS011;65006;51.698;-0.292;2023-08-30T13:14:51;4.47;;;0.60;;
22476;SDS011;65006;51.698;-0.292;2023-08-30T13:17:17;2.28;;;0.50;;
22476;SDS011;65006;51.698;-0.292;2023-08-30T13:19:43;1.77;;;0.40;;
22476;SDS011;65006;51.698;-0.292;2023-08-30T13:22:09;2.47;;;0.77;;
22476;SDS011;65006;51.698;-0.292;2023-08-30T13:24:36;0.65;;;0.30;;
22476;SDS011;65006;51.698;-0.292;2023-08-30T13:27:02;3.13;;;0.55;;
22476;SDS011;65006;51.698;-0.292;2023-08-30T13:29:28;1.90;;;0.40;;
22476;SDS011;65006;51.698;-0.292;2023-08-30T13:31:54;1.38;;;0.40;;
22476;SDS011;65006;51.698;-0.292;2023-08-30T13:34:20;0.80;;;0.40;;
22476;SDS011;65006;51.698;-0.292;2023-08-30T13:36:46;1.13;;;0.50;;
22476;SDS011;65006;51.698;-0.292;2023-08-30T13:39:12;1.00;;;0.30;;
22476;SDS011;65006;51.698;-0.292;2023-08-30T13:41:39;2.97;;;0.50;;
22476;SDS011;65006;51.698;-0.292;2023-08-30T13:44:05;2.75;;;0.63;;
22476;SDS011;65006;51.698;-0.292;2023-08-30T13:46:31;2.10;;;0.50;;
22476;SDS011;65006;51.698;-0.292;2023-08-30T13:48:58;2.30;;;0.40;;
22476;SDS011;65006;51.698;-0.292;2023-08-30T13:51:24;2.72;;;0.50;;
22476;SDS011;65006;51.698;-0.292;2023-08-30T13:56:16;2.00;;;0.40;;
22476;SDS011;65006;51.698;-0.292;2023-08-30T13:58:42;3.00;;;0.50;;
22476;SDS011;65006;51.698;-0.292;2023-08-30T14:01:08;1.27;;;0.52;;
22476;SDS011;65006;51.698;-0.292;2023-08-30T14:03:34;2.45;;;0.93;;
22476;SDS011;65006;51.698;-0.292;2023-08-30T14:06:00;2.15;;;0.50;;
22476;SDS011;65006;51.698;-0.292;2023-08-30T14:08:26;2.03;;;0.57;;
22476;SDS011;65006;51.698;-0.292;2023-08-30T14:10:52;2.40;;;0.70;;
22476;SDS011;65006;51.698;-0.292;2023-08-30T14:13:20;1.50;;;0.57;;
22476;SDS011;65006;51.698;-0.292;2023-08-30T14:15:46;3.08;;;0.70;;
22476;SDS011;65006;51.698;-0.292;2023-08-30T14:18:12;1.60;;;0.38;;
22476;SDS011;65006;51.698;-0.292;2023-08-30T14:20:38;1.58;;;0.40;;
22476;SDS011;65006;51.698;-0.292;2023-08-30T14:23:04;2.30;;;0.57;;
22476;SDS011;65006;51.698;-0.292;2023-08-30T14:25:30;1.42;;;0.57;;
22476;SDS011;65006;51.698;-0.292;2023-08-30T14:27:56;0.85;;;0.50;;
22476;SDS011;65006;51.698;-0.292;2023-08-30T14:30:22;3.03;;;0.50;;
22476;SDS011;65006;51.698;-0.292;2023-08-30T14:32:48;2.35;;;0.50;;
22476;SDS011;65006;51.698;-0.292;2023-08-30T14:35:16;2.22;;;0.63;;
22476;SDS011;65006;51.698;-0.292;2023-08-30T14:37:42;0.93;;;0.55;;
22476;SDS011;65006;51.698;-0.292;2023-08-30T14:40:08;2.72;;;0.57;;
22476;SDS011;65006;51.698;-0.292;2023-08-30T14:42:34;2.42;;;0.40;;
22476;SDS011;65006;51.698;-0.292;2023-08-30T14:45:00;1.33;;;0.30;;
22476;SDS011;65006;51.698;-0.292;2023-08-30T14:47:28;4.55;;;0.50;;
22476;SDS011;65006;51.698;-0.292;2023-08-30T14:49:55;3.72;;;0.65;;
22476;SDS011;65006;51.698;-0.292;2023-08-30T14:52:21;1.50;;;0.50;;
22476;SDS011;65006;51.698;-0.292;2023-08-30T14:54:47;2.58;;;0.70;;